Pagrindinis puslapis
METAR-TAF:

METAR-TAF

Oro uostai :

Jubail, Saudo Arabija

platuma: 27-02-20N, ilguma: 49-24-18E, Aukštis: 8 m

Dabartinis oras

Ataskaita buvo paskelbta 24 minutes, ne 05:00 UTC
Vėjas 5 kt iš Vakarų/Šiaurės Vakarų
Temperatūra 20°C
Drėgmė 64%
Slėgis 1018 hPa
Matomumas 10 km arba daugiau
nėra debesų žemiau 1500 m ir nėra kamuolinių lietaus debesų

METAR: OEJB 130500Z 29005KT CAVOK 20/13 Q1018 NOSIG

Laikas: 08:24 (05:24 UTC)


TAF: trūkstamas

Orai ataskaitas ir orų prognozės (METAR, TAF).

turimą stotys yra geltonos ir raudonos taškus žemėlapyje.

Perkelti pele per norėdami pamatyti stoties vardą.

Tada spustelėkite, norėdami matyti oro stebėjimo ir prognozės.

Norėdami pakeisti žemėlapį: spustelėkite ant žalios mygtukų su juodo kryžiaus žemyn,; žalią mygtuką su brūkšneliu, jei norite nutolinti; arba žalių rodyklių gretimoms žemėlapius.


METAR-TAF: